Time;durP1;ratioP1;P1;durP2;ratioP2;P2;SDS_P1;SDS_P2;PMS_P1;PMS_P2;Temp;Humidity;BMP_temperature;BMP_pressure;BME280_temperature;BME280_humidity;BME280_pressure;Samples;Min_cycle;Max_cycle;Signal;HPM_P1;HPM_P2
2021/04/26 00:01:56;;;;;;;7.80;2.55;;;9.70;42.70;;;;;;5031008;28;20049;-73
2021/04/26 00:04:23;;;;;;;3.13;2.25;;;9.70;42.80;;;;;;5033550;28;20053;-73
2021/04/26 00:06:49;;;;;;;7.05;2.63;;;9.70;42.70;;;;;;5031323;28;20135;-72
2021/04/26 00:09:15;;;;;;;8.02;2.13;;;9.80;42.70;;;;;;5032483;28;20137;-72
2021/04/26 00:11:42;;;;;;;4.90;2.25;;;9.90;42.30;;;;;;5031464;28;20455;-72
2021/04/26 00:14:08;;;;;;;4.90;2.42;;;10.00;41.40;;;;;;5034122;28;20060;-72
2021/04/26 00:16:34;;;;;;;4.60;2.50;;;9.90;42.50;;;;;;5044334;28;20141;-72
2021/04/26 00:19:04;;;;;;;5.60;2.67;;;9.70;42.80;;;;;;5059840;28;20080;-72
2021/04/26 00:21:31;;;;;;;4.10;2.47;;;9.50;43.40;;;;;;5049758;28;20531;-71
2021/04/26 00:23:57;;;;;;;6.15;2.90;;;9.40;43.60;;;;;;5046303;28;20049;-71
2021/04/26 00:26:24;;;;;;;6.38;2.70;;;9.50;44.00;;;;;;5045068;28;20384;-71
2021/04/26 00:28:51;;;;;;;4.47;2.58;;;9.40;44.10;;;;;;5049983;28;20120;-71
2021/04/26 00:31:17;;;;;;;5.97;2.83;;;9.50;44.30;;;;;;5041801;28;20687;-71
2021/04/26 00:33:43;;;;;;;9.15;2.88;;;9.30;44.80;;;;;;5043220;28;20053;-71
2021/04/26 00:36:10;;;;;;;8.52;2.92;;;9.20;44.90;;;;;;5046994;28;20044;-72
2021/04/26 00:38:36;;;;;;;8.77;2.90;;;9.30;45.00;;;;;;5043191;28;20045;-71
2021/04/26 00:41:03;;;;;;;4.93;2.63;;;9.30;45.50;;;;;;5047518;28;20124;-72
2021/04/26 00:43:29;;;;;;;5.90;2.40;;;9.10;44.90;;;;;;5044275;28;20045;-73
2021/04/26 00:45:55;;;;;;;5.30;2.40;;;9.10;45.10;;;;;;5036166;28;20079;-72
2021/04/26 00:48:22;;;;;;;5.53;2.63;;;9.10;45.30;;;;;;5047601;28;20045;-72
2021/04/26 00:50:49;;;;;;;6.70;2.70;;;9.30;45.10;;;;;;5045120;28;20047;-72
2021/04/26 00:53:15;;;;;;;5.68;3.50;;;9.40;45.10;;;;;;5049156;28;20045;-73
2021/04/26 00:55:43;;;;;;;4.57;2.85;;;9.40;44.90;;;;;;5044588;28;20099;-72
2021/04/26 00:58:10;;;;;;;7.53;2.80;;;9.30;44.90;;;;;;5049549;28;20052;-72
2021/04/26 01:00:37;;;;;;;6.40;2.75;;;9.10;45.20;;;;;;5048245;28;20095;-72
2021/04/26 01:03:04;;;;;;;6.68;3.28;;;9.00;45.50;;;;;;5056764;28;20148;-73
2021/04/26 01:05:34;;;;;;;5.55;2.35;;;8.90;45.90;;;;;;5047351;28;20380;-72
2021/04/26 01:08:00;;;;;;;6.60;2.50;;;9.10;45.50;;;;;;5042442;28;20087;-72
2021/04/26 01:10:30;;;;;;;8.50;2.72;;;9.10;45.60;;;;;;5047737;28;20071;-72
2021/04/26 01:13:18;;;;;;;9.70;2.92;;;9.10;45.60;;;;;;5049598;28;20502;-73
2021/04/26 01:16:01;;;;;;;9.73;2.88;;;9.00;45.60;;;;;;5044345;28;20498;-71
2021/04/26 01:18:36;;;;;;;6.35;2.80;;;8.90;46.10;;;;;;5043215;28;20048;-72
2021/04/26 01:21:41;;;;;;;6.90;2.95;;;8.90;45.80;;;;;;5058483;28;20052;-71
2021/04/26 01:24:22;;;;;;;11.60;3.22;;;8.90;45.90;;;;;;5044467;28;20432;-71
2021/04/26 01:26:58;;;;;;;5.00;3.03;;;8.80;46.10;;;;;;5047761;28;20529;-71
2021/04/26 01:29:56;;;;;;;5.07;2.60;;;8.80;45.90;;;;;;5062272;28;20143;-72
2021/04/26 01:32:42;;;;;;;8.32;2.60;;;8.80;45.90;;;;;;5028461;28;20107;-71
2021/04/26 01:35:14;;;;;;;5.10;2.40;;;8.70;46.00;;;;;;5046518;28;20044;-72
2021/04/26 01:37:42;;;;;;;6.25;2.35;;;8.80;45.50;;;;;;5052127;28;20063;-72
2021/04/26 01:40:12;;;;;;;5.50;2.55;;;8.80;45.60;;;;;;5052161;28;20127;-72
2021/04/26 01:42:42;;;;;;;3.47;1.80;;;8.90;45.60;;;;;;5052513;28;20194;-72
2021/04/26 01:45:12;;;;;;;5.72;2.33;;;8.90;45.50;;;;;;5044244;28;20045;-71
2021/04/26 01:47:40;;;;;;;4.25;2.00;;;8.90;45.30;;;;;;5045641;28;20064;-71
2021/04/26 01:50:10;;;;;;;4.97;2.30;;;8.90;45.10;;;;;;5049391;28;20072;-72
2021/04/26 01:52:36;;;;;;;6.60;2.13;;;8.90;45.40;;;;;;5048841;28;20083;-72
2021/04/26 01:55:06;;;;;;;7.10;2.50;;;8.60;45.50;;;;;;5051664;28;20111;-72
2021/04/26 01:57:33;;;;;;;5.53;2.42;;;8.70;45.80;;;;;;5050298;28;20353;-72
2021/04/26 02:00:09;;;;;;;6.53;2.70;;;8.60;45.80;;;;;;5043939;28;20385;-72
2021/04/26 02:02:36;;;;;;;8.18;2.55;;;8.60;45.90;;;;;;5050689;28;20041;-71
2021/04/26 02:05:07;;;;;;;6.38;2.63;;;8.40;46.10;;;;;;5051804;28;20048;-73
2021/04/26 02:07:36;;;;;;;6.32;2.47;;;8.40;46.60;;;;;;5053196;28;20087;-73
2021/04/26 02:10:05;;;;;;;7.20;2.67;;;8.60;46.30;;;;;;5050985;28;20049;-72
2021/04/26 02:12:32;;;;;;;5.25;2.28;;;8.60;46.30;;;;;;5050374;28;20076;-72
2021/04/26 02:14:59;;;;;;;4.60;2.30;;;8.70;46.10;;;;;;5047971;28;20500;-72
2021/04/26 02:17:26;;;;;;;6.03;2.58;;;8.50;46.50;;;;;;5064120;28;20134;-71
2021/04/26 02:19:53;;;;;;;8.95;2.75;;;8.40;46.30;;;;;;5051917;28;20045;-72
2021/04/26 02:22:19;;;;;;;7.05;2.60;;;8.50;46.30;;;;;;5048302;28;20044;-71
2021/04/26 02:24:46;;;;;;;5.10;2.63;;;8.30;46.70;;;;;;5051501;28;20044;-72
2021/04/26 02:27:12;;;;;;;4.88;2.67;;;8.30;46.40;;;;;;5051411;28;20072;-71
2021/04/26 02:29:38;;;;;;;4.78;2.40;;;8.50;46.20;;;;;;5046306;28;20496;-71
2021/04/26 02:32:09;;;;;;;7.15;2.40;;;8.40;46.20;;;;;;5047432;28;20187;-71
2021/04/26 02:34:38;;;;;;;;;;;8.40;45.90;;;;;;5050714;28;20049;-72
2021/04/26 02:37:11;;;;;;;5.13;2.40;;;8.40;46.00;;;;;;5050459;28;19966;-72
2021/04/26 02:39:41;;;;;;;6.65;3.33;;;8.50;45.70;;;;;;5050175;28;20103;-71
2021/04/26 02:42:09;;;;;;;5.38;2.33;;;8.40;45.90;;;;;;5049899;28;20076;-72
2021/04/26 02:44:37;;;;;;;5.90;2.42;;;8.30;46.20;;;;;;5044435;28;20129;-71
2021/04/26 02:47:08;;;;;;;6.50;2.70;;;8.30;46.30;;;;;;5049504;28;20104;-70
2021/04/26 02:49:38;;;;;;;5.90;2.80;;;8.10;46.70;;;;;;5052906;28;20182;-73
2021/04/26 02:52:05;;;;;;;7.85;3.03;;;8.00;46.90;;;;;;5043747;28;20122;-72
2021/04/26 02:54:35;;;;;;;9.57;2.58;;;8.00;47.10;;;;;;5051113;28;20413;-72
2021/04/26 02:57:02;;;;;;;7.35;2.97;;;8.00;47.20;;;;;;5050158;28;20552;-72
2021/04/26 02:59:29;;;;;;;5.47;2.60;;;7.90;47.30;;;;;;5045387;28;20122;-73
2021/04/26 03:01:57;;;;;;;5.72;2.72;;;7.70;47.40;;;;;;5049892;28;20460;-72
2021/04/26 03:04:28;;;;;;;6.10;2.83;;;7.70;47.80;;;;;;5048851;28;20140;-73
2021/04/26 03:06:59;;;;;;;8.98;3.05;;;7.60;47.70;;;;;;5041094;28;20111;-72
2021/04/26 03:09:27;;;;;;;5.25;2.78;;;7.60;47.90;;;;;;5041025;28;20404;-73
2021/04/26 03:11:54;;;;;;;4.30;2.40;;;7.70;47.70;;;;;;5050479;28;20049;-73
2021/04/26 03:14:21;;;;;;;6.80;2.53;;;7.80;47.50;;;;;;5049298;28;20041;-73
2021/04/26 03:16:48;;;;;;;5.35;2.47;;;7.60;47.70;;;;;;5048670;28;20385;-73
2021/04/26 03:19:16;;;;;;;11.35;2.78;;;7.80;47.70;;;;;;5056871;28;20148;-72
2021/04/26 03:21:45;;;;;;;4.20;2.55;;;7.50;47.80;;;;;;5039096;28;20553;-74
2021/04/26 03:24:14;;;;;;;5.32;2.42;;;7.70;47.90;;;;;;5052284;28;20071;-74
2021/04/26 03:26:46;;;;;;;6.23;2.80;;;7.80;47.90;;;;;;5048290;28;20106;-72
2021/04/26 03:29:20;;;;;;;7.88;2.47;;;7.60;48.10;;;;;;5045448;28;20303;-72
2021/04/26 03:31:48;;;;;;;7.03;2.90;;;7.90;48.70;;;;;;5048935;28;20064;-71
2021/04/26 03:34:15;;;;;;;5.88;2.83;;;7.50;48.60;;;;;;5048862;28;20166;-72
2021/04/26 03:36:42;;;;;;;3.90;2.45;;;7.50;49.30;;;;;;5044159;28;20092;-71
2021/04/26 03:39:09;;;;;;;6.50;2.78;;;7.50;49.10;;;;;;5050481;28;20146;-72
2021/04/26 03:41:37;;;;;;;9.32;3.08;;;7.60;49.00;;;;;;5049466;28;20045;-72
2021/04/26 03:44:10;;;;;;;6.18;2.58;;;7.50;49.20;;;;;;5041553;28;20132;-72
2021/04/26 03:46:51;;;;;;;6.38;2.47;;;7.50;49.20;;;;;;5047867;28;20049;-72
2021/04/26 03:49:18;;;;;;;7.45;3.25;;;7.50;49.00;;;;;;5048488;28;20044;-73
2021/04/26 03:51:44;;;;;;;6.15;2.80;;;7.50;49.20;;;;;;5043751;28;20045;-72
2021/04/26 03:54:10;;;;;;;9.55;2.80;;;7.40;49.30;;;;;;5046094;28;20057;-72
2021/04/26 03:56:37;;;;;;;5.68;2.78;;;7.50;49.30;;;;;;5050405;28;20132;-73
2021/04/26 03:59:03;;;;;;;9.43;3.00;;;7.30;49.20;;;;;;5048203;28;20041;-72
2021/04/26 04:01:30;;;;;;;7.63;2.95;;;7.40;49.50;;;;;;5050726;28;20041;-71
2021/04/26 04:03:56;;;;;;;9.07;2.85;;;7.30;49.30;;;;;;5052575;28;20439;-71
2021/04/26 04:06:22;;;;;;;7.53;3.10;;;7.30;49.50;;;;;;5047908;28;20108;-71
2021/04/26 04:08:49;;;;;;;7.53;3.30;;;7.40;49.40;;;;;;5040656;28;20054;-71
2021/04/26 04:11:15;;;;;;;4.93;2.65;;;7.40;49.30;;;;;;5049624;28;20447;-71
2021/04/26 04:13:42;;;;;;;7.53;2.60;;;7.40;49.20;;;;;;5044364;28;20136;-72
2021/04/26 04:16:08;;;;;;;5.72;3.05;;;7.30;49.20;;;;;;5051830;28;20045;-72
2021/04/26 04:18:35;;;;;;;8.55;2.80;;;7.10;49.50;;;;;;5051542;28;20048;-72
2021/04/26 04:21:02;;;;;;;6.18;2.38;;;7.30;49.50;;;;;;5042850;28;21021;-71
2021/04/26 04:23:29;;;;;;;10.57;2.55;;;7.20;49.50;;;;;;5048639;28;20128;-72
2021/04/26 04:25:55;;;;;;;5.60;2.50;;;6.90;49.40;;;;;;5047221;28;20080;-72
2021/04/26 04:28:21;;;;;;;8.10;2.55;;;7.30;49.50;;;;;;5048289;28;20048;-73
2021/04/26 04:30:48;;;;;;;5.07;2.97;;;7.40;49.60;;;;;;5048884;28;20076;-72
2021/04/26 04:33:15;;;;;;;9.10;2.92;;;7.30;49.60;;;;;;5054513;28;20061;-72
2021/04/26 04:35:42;;;;;;;12.90;3.78;;;7.00;49.50;;;;;;5048547;28;20067;-71
2021/04/26 04:38:08;;;;;;;6.43;2.85;;;6.90;50.00;;;;;;5048041;28;20544;-69
2021/04/26 04:40:35;;;;;;;7.00;2.72;;;6.90;50.40;;;;;;5048071;28;20040;-71
2021/04/26 04:43:01;;;;;;;10.50;3.08;;;6.90;50.10;;;;;;5054075;28;20548;-71
2021/04/26 04:45:27;;;;;;;7.50;3.17;;;7.10;50.30;;;;;;5047572;28;20068;-72
2021/04/26 04:47:53;;;;;;;6.43;3.10;;;7.10;50.00;;;;;;5048751;28;20045;-71
2021/04/26 04:50:20;;;;;;;9.85;3.30;;;7.00;49.80;;;;;;5046744;28;20049;-72
2021/04/26 04:52:47;;;;;;;5.72;2.95;;;7.20;49.90;;;;;;5048575;28;20144;-71
2021/04/26 04:55:14;;;;;;;7.78;3.55;;;7.20;50.00;;;;;;5042556;28;20095;-72
2021/04/26 04:57:41;;;;;;;11.38;3.70;;;7.30;49.90;;;;;;5049719;28;20076;-72
2021/04/26 05:00:08;;;;;;;12.70;3.47;;;7.20;49.70;;;;;;5045453;28;20446;-72
2021/04/26 05:02:35;;;;;;;10.80;3.38;;;7.20;49.90;;;;;;5048734;28;20122;-73
2021/04/26 05:05:02;;;;;;;9.80;3.20;;;7.20;50.10;;;;;;5047582;28;20052;-72
2021/04/26 05:07:28;;;;;;;7.25;3.05;;;7.50;50.00;;;;;;5049000;28;20053;-72
2021/04/26 05:09:55;;;;;;;10.27;3.58;;;7.60;49.30;;;;;;5050018;28;20095;-72
2021/04/26 05:12:23;;;;;;;6.25;3.33;;;7.60;49.30;;;;;;5045767;28;20099;-73
2021/04/26 05:14:49;;;;;;;6.70;3.15;;;7.60;49.50;;;;;;5046232;28;20091;-73
2021/04/26 05:17:17;;;;;;;8.48;3.50;;;7.70;49.20;;;;;;5049659;28;20114;-72
2021/04/26 05:19:44;;;;;;;7.75;3.42;;;7.70;49.00;;;;;;5047521;28;20528;-71
2021/04/26 05:22:10;;;;;;;9.45;3.10;;;7.50;49.40;;;;;;5037105;28;20071;-72
2021/04/26 05:24:39;;;;;;;7.43;3.08;;;7.70;49.10;;;;;;5058456;28;20049;-71
2021/04/26 05:27:05;;;;;;;7.45;3.08;;;7.70;49.50;;;;;;5047605;28;20049;-71
2021/04/26 05:29:32;;;;;;;10.05;3.33;;;7.60;49.20;;;;;;5042231;28;20464;-72
2021/04/26 05:31:58;;;;;;;11.27;3.08;;;7.60;49.20;;;;;;5044608;28;20496;-72
2021/04/26 05:34:24;;;;;;;6.32;3.45;;;7.80;49.00;;;;;;5046561;28;20110;-71
2021/04/26 05:36:51;;;;;;;7.13;3.40;;;7.80;48.80;;;;;;5045028;28;20050;-71
2021/04/26 05:39:18;;;;;;;7.47;3.25;;;7.80;48.90;;;;;;5048922;28;20538;-72
2021/04/26 05:41:44;;;;;;;7.07;3.45;;;7.80;48.80;;;;;;5037746;28;20096;-72
2021/04/26 05:44:11;;;;;;;11.00;3.72;;;8.20;48.60;;;;;;5047207;28;20144;-71
2021/04/26 05:46:37;;;;;;;10.07;3.95;;;8.30;48.10;;;;;;5044391;28;20428;-72
2021/04/26 05:49:04;;;;;;;13.25;4.03;;;8.50;47.90;;;;;;5046432;28;20120;-73
2021/04/26 05:51:30;;;;;;;15.13;3.97;;;8.70;47.70;;;;;;5047035;28;20100;-72
2021/04/26 05:53:57;;;;;;;10.30;3.42;;;9.90;46.30;;;;;;5044537;28;20134;-72
2021/04/26 05:56:23;;;;;;;10.77;3.47;;;10.50;42.80;;;;;;5048021;28;20045;-71
2021/04/26 05:58:50;;;;;;;6.47;2.88;;;9.60;44.50;;;;;;5042666;28;20653;-72
2021/04/26 06:01:17;;;;;;;11.68;2.90;;;9.50;45.10;;;;;;5048030;28;20087;-72
2021/04/26 06:03:43;;;;;;;7.55;3.58;;;10.00;43.50;;;;;;5048279;28;20045;-72
2021/04/26 06:06:10;;;;;;;8.40;3.20;;;9.70;44.20;;;;;;5046230;28;20138;-72
2021/04/26 06:08:36;;;;;;;6.25;3.20;;;9.50;44.80;;;;;;5049704;28;20079;-71
2021/04/26 06:11:03;;;;;;;5.22;3.10;;;9.50;44.60;;;;;;5036193;28;20049;-72
2021/04/26 06:13:30;;;;;;;6.15;3.03;;;9.50;44.60;;;;;;5045543;28;20139;-71
2021/04/26 06:15:56;;;;;;;6.65;3.03;;;10.40;43.40;;;;;;5043041;28;20136;-72
2021/04/26 06:18:24;;;;;;;9.48;3.28;;;11.70;41.20;;;;;;5039257;28;20042;-72
2021/04/26 06:20:52;;;;;;;6.70;2.80;;;10.90;40.70;;;;;;5051178;28;20045;-73
2021/04/26 06:23:20;;;;;;;5.50;2.92;;;10.50;41.80;;;;;;5050183;28;20622;-72
2021/04/26 06:25:48;;;;;;;3.72;2.70;;;10.30;41.90;;;;;;5060168;28;20068;-72
2021/04/26 06:28:15;;;;;;;12.15;3.05;;;11.20;41.50;;;;;;5049340;28;20126;-71
2021/04/26 06:30:44;;;;;;;12.77;3.40;;;10.70;41.00;;;;;;5048286;28;20616;-72
2021/04/26 06:33:15;;;;;;;8.55;2.83;;;10.40;41.60;;;;;;5049653;28;20047;-73
2021/04/26 06:35:48;;;;;;;8.88;3.40;;;10.70;41.40;;;;;;5044725;28;20041;-72
2021/04/26 06:38:14;;;;;;;6.78;3.58;;;10.50;41.30;;;;;;5051577;28;20484;-72
2021/04/26 06:40:41;;;;;;;5.13;3.08;;;10.60;41.50;;;;;;5048454;28;20053;-73
2021/04/26 06:43:12;;;;;;;6.38;2.92;;;11.20;41.30;;;;;;5049863;28;20055;-73
2021/04/26 06:45:39;;;;;;;5.78;2.92;;;11.70;40.10;;;;;;5051085;28;20045;-72
2021/04/26 06:48:07;;;;;;;8.18;3.25;;;11.40;39.80;;;;;;5043108;28;20057;-74
2021/04/26 06:50:35;;;;;;;6.18;2.90;;;11.10;40.40;;;;;;5048040;28;20055;-73
2021/04/26 06:53:01;;;;;;;8.13;3.08;;;10.90;40.70;;;;;;5047460;28;20046;-73
2021/04/26 06:55:28;;;;;;;6.85;3.08;;;11.30;40.70;;;;;;5047564;28;20388;-72
2021/04/26 06:57:54;;;;;;;6.90;3.05;;;11.50;40.50;;;;;;5048192;28;20107;-73
2021/04/26 07:00:22;;;;;;;5.75;3.10;;;11.20;39.90;;;;;;5047183;28;20041;-73
2021/04/26 07:02:49;;;;;;;9.95;2.95;;;11.80;39.90;;;;;;5045499;28;20079;-74
2021/04/26 07:05:16;;;;;;;5.88;2.97;;;11.90;39.40;;;;;;5050231;28;20983;-73
2021/04/26 07:07:43;;;;;;;5.32;2.65;;;11.90;39.60;;;;;;5051075;28;20384;-74
2021/04/26 07:10:09;;;;;;;6.35;3.28;;;11.70;39.80;;;;;;5048802;28;20079;-74
2021/04/26 07:12:37;;;;;;;7.45;2.45;;;12.20;39.50;;;;;;5046866;28;20087;-73
2021/04/26 07:18:51;;;;;;;8.50;3.13;;;13.70;36.80;;;;;;5034335;28;20561;-73
2021/04/26 07:21:18;;;;;;;6.13;3.17;;;12.60;38.00;;;;;;5046350;28;20124;-74
2021/04/26 07:23:45;;;;;;;6.95;3.17;;;12.10;39.10;;;;;;5044557;28;20321;-75
2021/04/26 07:26:12;;;;;;;6.45;3.17;;;12.10;39.10;;;;;;5049513;28;20111;-75
2021/04/26 07:28:38;;;;;;;7.70;2.72;;;12.30;39.10;;;;;;5036658;28;20091;-75
2021/04/26 07:31:06;;;;;;;7.30;2.80;;;12.40;39.20;;;;;;5042181;28;20052;-75
2021/04/26 07:33:33;;;;;;;5.75;2.60;;;11.90;39.20;;;;;;5043134;28;20069;-75
2021/04/26 07:35:59;;;;;;;4.65;2.75;;;11.80;39.30;;;;;;5043728;28;20095;-76
2021/04/26 07:38:26;;;;;;;6.30;2.72;;;12.20;38.90;;;;;;5043891;28;20118;-74
2021/04/26 07:40:52;;;;;;;18.75;7.75;;;12.60;38.60;;;;;;5042433;28;20053;-74
2021/04/26 07:43:18;;;;;;;7.82;2.75;;;13.30;37.60;;;;;;5043875;28;20107;-74
2021/04/26 07:45:45;;;;;;;5.60;2.67;;;13.00;38.30;;;;;;5041785;28;20045;-74
2021/04/26 07:48:11;;;;;;;5.63;2.60;;;12.60;37.90;;;;;;5038055;28;20144;-74
2021/04/26 07:50:39;;;;;;;8.02;2.70;;;12.50;37.80;;;;;;5042695;28;20120;-75
2021/04/26 07:53:06;;;;;;;8.63;2.50;;;12.20;38.80;;;;;;5042223;28;20722;-74
2021/04/26 07:55:33;;;;;;;7.65;2.67;;;12.30;38.50;;;;;;5042197;28;20523;-75
2021/04/26 07:58:00;;;;;;;7.20;3.50;;;12.90;37.60;;;;;;5044529;28;20045;-73
2021/04/26 08:00:26;;;;;;;5.53;2.67;;;12.90;39.00;;;;;;5042647;28;20144;-73
2021/04/26 08:02:53;;;;;;;7.07;2.90;;;13.00;37.50;;;;;;5040063;28;20602;-75
2021/04/26 08:05:19;;;;;;;4.22;2.30;;;13.30;36.80;;;;;;5040331;28;20549;-75
2021/04/26 08:07:46;;;;;;;5.68;2.33;;;12.60;37.00;;;;;;5041726;28;20568;-76
2021/04/26 08:10:13;;;;;;;5.43;2.30;;;12.70;37.80;;;;;;5038667;28;20650;-73
2021/04/26 08:12:40;;;;;;;8.02;2.95;;;12.90;38.10;;;;;;5041702;28;20057;-73
2021/04/26 08:15:08;;;;;;;4.47;2.22;;;12.90;39.40;;;;;;5032386;28;20083;-73
2021/04/26 08:17:35;;;;;;;5.15;2.13;;;13.70;36.40;;;;;;5040104;28;20072;-74
2021/04/26 08:20:04;;;;;;;5.85;2.35;;;13.80;36.20;;;;;;5041900;28;20136;-73
2021/04/26 08:22:31;;;;;;;5.20;2.15;;;13.60;37.20;;;;;;5040724;28;20059;-72
2021/04/26 08:24:57;;;;;;;10.00;2.40;;;14.10;36.50;;;;;;5040788;28;20102;-73
2021/04/26 08:27:23;;;;;;;5.82;2.17;;;14.50;35.00;;;;;;5041757;28;20396;-74
2021/04/26 08:29:50;;;;;;;12.07;4.40;;;14.50;34.70;;;;;;5042699;28;20103;-73
2021/04/26 08:32:16;;;;;;;3.58;2.22;;;14.20;35.60;;;;;;5042512;28;20053;-74
2021/04/26 08:34:43;;;;;;;7.13;2.20;;;13.80;35.40;;;;;;5041845;28;20057;-73
2021/04/26 08:37:09;;;;;;;8.10;2.20;;;13.90;35.00;;;;;;5042194;28;20515;-73
2021/04/26 08:39:36;;;;;;;3.65;2.13;;;13.50;34.60;;;;;;5039321;28;20696;-76
2021/04/26 08:42:05;;;;;;;4.05;1.90;;;14.10;35.20;;;;;;5039271;28;20692;-75
2021/04/26 08:44:31;;;;;;;3.45;2.20;;;14.10;34.20;;;;;;5041633;28;20270;-76
2021/04/26 08:46:58;;;;;;;9.82;2.28;;;13.90;35.30;;;;;;5038617;28;20044;-75
2021/04/26 08:49:25;;;;;;;3.88;2.00;;;14.40;34.80;;;;;;5042161;28;20068;-75
2021/04/26 08:51:53;;;;;;;4.20;2.22;;;14.70;35.20;;;;;;5042362;28;21390;-75
2021/04/26 08:54:19;;;;;;;2.75;2.00;;;14.30;34.30;;;;;;5039158;28;20052;-80
2021/04/26 08:56:47;;;;;;;5.18;1.98;;;14.40;34.90;;;;;;5042020;28;20045;-78
2021/04/26 08:59:17;;;;;;;5.45;1.67;;;15.10;34.10;;;;;;5045303;28;20093;-78
2021/04/26 09:02:05;;;;;;;4.00;1.80;;;15.30;32.70;;;;;;5044024;28;21355;-78
2021/04/26 09:04:35;;;;;;;6.28;2.13;;;15.40;33.40;;;;;;5045475;28;20045;-77
2021/04/26 09:07:03;;;;;;;7.95;2.00;;;15.00;33.00;;;;;;5044089;28;20098;-78
2021/04/26 09:09:37;;;;;;;4.43;2.35;;;14.90;33.50;;;;;;5063684;28;20056;-78
2021/04/26 09:12:06;;;;;;;6.07;2.10;;;14.50;33.80;;;;;;5041732;28;20137;-74
2021/04/26 09:14:40;;;;;;;3.90;1.98;;;14.50;33.70;;;;;;5040474;28;21353;-74
2021/04/26 09:17:28;;;;;;;5.00;2.20;;;15.30;33.30;;;;;;5039271;28;20049;-74
2021/04/26 09:20:11;;;;;;;6.55;2.10;;;15.20;32.60;;;;;;5041823;28;20075;-75
2021/04/26 09:22:45;;;;;;;3.13;2.03;;;15.20;32.50;;;;;;5039650;28;20053;-75
2021/04/26 09:25:42;;;;;;;9.15;2.15;;;15.10;33.00;;;;;;5041658;28;20068;-74
2021/04/26 09:28:19;;;;;;;3.92;2.20;;;15.60;33.00;;;;;;5039548;28;20146;-74
2021/04/26 09:30:49;;;;;;;3.45;2.28;;;15.10;32.50;;;;;;5042245;28;20216;-72
2021/04/26 09:33:28;;;;;;;;;;;15.10;32.70;;;;;;5034088;28;20151;-75
2021/04/26 09:36:30;;;;;;;9.32;2.50;;;15.00;32.80;;;;;;5040638;28;20435;-75
2021/04/26 09:39:00;;;;;;;6.75;2.35;;;15.50;33.20;;;;;;5039846;28;20126;-76
2021/04/26 09:41:33;;;;;;;5.90;2.20;;;15.60;32.50;;;;;;5037920;28;20150;-76
2021/04/26 09:44:00;;;;;;;5.47;2.60;;;16.10;33.30;;;;;;5039501;28;20744;-76
2021/04/26 09:46:45;;;;;;;4.63;2.17;;;16.00;32.40;;;;;;5041005;28;20167;-76
2021/04/26 09:49:19;;;;;;;6.25;2.38;;;16.30;32.10;;;;;;5041017;28;20060;-77
2021/04/26 09:51:54;;;;;;;12.48;4.70;;;15.70;31.80;;;;;;5043160;28;20053;-79
2021/04/26 09:54:38;;;;;;;4.07;2.50;;;15.70;33.50;;;;;;5047536;28;20532;-79
2021/04/26 09:57:06;;;;;;;7.38;2.83;;;16.20;31.00;;;;;;5043618;28;20079;-78
2021/04/26 09:59:33;;;;;;;6.35;2.05;;;15.80;32.10;;;;;;5047904;28;20077;-79
2021/04/26 10:02:02;;;;;;;15.77;6.78;;;15.40;32.50;;;;;;5048613;28;20080;-78
2021/04/26 10:04:29;;;;;;;3.80;2.30;;;15.40;33.90;;;;;;5048967;28;20130;-74
2021/04/26 10:06:57;;;;;;;4.85;2.65;;;15.40;32.60;;;;;;5038406;28;20049;-75
2021/04/26 10:09:24;;;;;;;15.18;5.30;;;14.90;32.90;;;;;;5048306;28;20446;-75
2021/04/26 10:11:53;;;;;;;6.25;2.80;;;15.40;34.20;;;;;;5066643;28;20057;-77
2021/04/26 10:14:20;;;;;;;7.15;2.95;;;15.90;32.70;;;;;;5052414;28;20037;-75
2021/04/26 10:16:58;;;;;;;4.70;2.80;;;16.50;31.90;;;;;;5052022;28;20573;-75
2021/04/26 10:19:32;;;;;;;3.47;2.15;;;17.20;31.00;;;;;;5050306;28;20455;-75
2021/04/26 10:22:00;;;;;;;4.63;2.33;;;19.60;29.50;;;;;;5050785;28;20053;-74
2021/04/26 10:24:31;;;;;;;7.30;2.33;;;21.00;27.50;;;;;;5056515;28;20044;-76
2021/04/26 10:27:01;;;;;;;5.50;2.05;;;19.60;28.50;;;;;;5050250;28;20049;-75
2021/04/26 10:29:37;;;;;;;4.55;2.28;;;20.20;27.80;;;;;;5047233;28;20544;-74
2021/04/26 10:32:10;;;;;;;4.53;2.05;;;19.40;28.50;;;;;;5057701;28;20550;-77
2021/04/26 10:34:57;;;;;;;4.57;2.00;;;19.70;28.30;;;;;;5046811;28;20052;-76
2021/04/26 10:37:26;;;;;;;6.43;2.20;;;18.90;28.70;;;;;;5053559;28;20057;-77
2021/04/26 10:39:59;;;;;;;4.88;2.40;;;17.90;29.80;;;;;;5061645;28;20066;-77
2021/04/26 10:42:42;;;;;;;5.05;2.38;;;18.30;29.30;;;;;;5052514;28;20056;-76
2021/04/26 10:45:12;;;;;;;4.13;2.28;;;19.90;28.60;;;;;;5052274;28;20041;-76
2021/04/26 10:47:41;;;;;;;6.10;2.10;;;19.00;28.90;;;;;;5044613;28;20064;-75
2021/04/26 10:50:07;;;;;;;6.03;2.50;;;19.50;28.30;;;;;;5052408;28;20041;-77
2021/04/26 10:52:37;;;;;;;7.95;2.30;;;21.40;28.10;;;;;;5049870;28;20044;-76
2021/04/26 10:55:34;;;;;;;5.95;2.47;;;22.10;26.50;;;;;;5053581;28;20048;-77
2021/04/26 10:58:10;;;;;;;6.80;2.33;;;23.00;26.10;;;;;;5040607;28;20056;-76
2021/04/26 11:00:36;;;;;;;4.22;2.15;;;21.60;26.70;;;;;;5033775;28;20073;-75
2021/04/26 11:03:05;;;;;;;6.60;2.58;;;21.60;26.80;;;;;;5040418;28;20127;-75
2021/04/26 11:05:35;;;;;;;6.38;2.80;;;20.80;27.50;;;;;;5059163;28;20067;-76
2021/04/26 11:10:41;;;;;;;4.07;2.33;;;18.80;28.30;;;;;;5050492;28;20076;-76
2021/04/26 11:13:29;;;;;;;4.63;2.28;;;18.50;28.80;;;;;;5049583;28;20295;-74
2021/04/26 11:16:07;;;;;;;3.22;2.15;;;17.50;30.00;;;;;;5050289;28;20407;-73
2021/04/26 11:18:45;;;;;;;6.80;2.55;;;17.40;30.70;;;;;;5050468;28;20045;-74
2021/04/26 11:21:32;;;;;;;5.80;2.33;;;17.20;29.40;;;;;;5051117;28;20106;-73
2021/04/26 11:23:58;;;;;;;6.18;2.15;;;17.10;29.60;;;;;;5053219;28;20048;-75
2021/04/26 11:26:25;;;;;;;4.28;2.25;;;17.30;30.00;;;;;;5057746;28;20648;-76
2021/04/26 11:29:08;;;;;;;3.70;2.28;;;18.40;29.40;;;;;;5048026;28;20523;-74
2021/04/26 11:31:40;;;;;;;3.83;1.80;;;18.30;28.90;;;;;;5048109;28;20091;-74
2021/04/26 11:34:16;;;;;;;4.55;2.38;;;18.10;29.00;;;;;;5047784;28;20049;-75
2021/04/26 11:37:04;;;;;;;3.55;2.00;;;18.60;28.00;;;;;;5050373;28;20454;-74
2021/04/26 11:39:33;;;;;;;4.85;2.00;;;18.40;27.60;;;;;;5050565;28;20545;-74
2021/04/26 11:42:00;;;;;;;7.13;2.10;;;18.00;29.20;;;;;;5050542;28;20397;-75
2021/04/26 11:44:45;;;;;;;5.97;2.38;;;17.80;29.60;;;;;;5040194;28;20041;-75
2021/04/26 11:47:13;;;;;;;6.50;2.17;;;18.80;28.50;;;;;;5049576;28;20045;-74
2021/04/26 11:49:43;;;;;;;3.20;1.70;;;20.90;28.30;;;;;;5047633;28;20510;-74
2021/04/26 11:52:27;;;;;;;6.25;2.30;;;21.20;26.50;;;;;;5051172;28;20373;-76
2021/04/26 11:55:10;;;;;;;4.45;2.20;;;20.30;27.70;;;;;;5049951;28;20146;-74
2021/04/26 11:57:59;;;;;;;5.80;1.92;;;22.30;26.50;;;;;;5048718;28;20131;-75
2021/04/26 12:00:31;;;;;;;4.33;1.80;;;22.60;25.70;;;;;;5047455;28;20056;-75
2021/04/26 12:03:06;;;;;;;5.25;1.88;;;23.90;25.30;;;;;;5042699;28;20049;-74
2021/04/26 12:05:33;;;;;;;5.13;2.03;;;22.70;25.30;;;;;;5048689;28;20052;-75
2021/04/26 12:08:00;;;;;;;3.72;2.10;;;21.30;26.10;;;;;;5047963;28;20056;-75
2021/04/26 12:10:31;;;;;;;6.05;2.28;;;21.30;27.40;;;;;;5046544;28;20061;-74
2021/04/26 12:13:01;;;;;;;4.45;2.10;;;21.50;26.90;;;;;;5048067;28;20370;-74
2021/04/26 12:15:28;;;;;;;3.97;1.83;;;20.80;27.10;;;;;;5049040;28;20056;-75
2021/04/26 12:17:59;;;;;;;4.05;2.47;;;22.00;27.00;;;;;;5039910;28;20050;-75
2021/04/26 12:20:32;;;;;;;4.47;1.88;;;22.00;26.20;;;;;;5050892;28;20476;-75
2021/04/26 12:23:02;;;;;;;8.05;2.30;;;22.90;26.20;;;;;;5057774;28;20471;-75
2021/04/26 12:25:38;;;;;;;19.25;2.58;;;24.10;25.70;;;;;;5048197;28;20100;-75
2021/04/26 12:28:06;;;;;;;4.53;1.98;;;24.80;25.00;;;;;;5045892;28;20148;-74
2021/04/26 12:30:43;;;;;;;4.28;2.17;;;24.40;25.00;;;;;;5049095;28;20131;-73
2021/04/26 12:33:31;;;;;;;5.55;2.03;;;24.40;25.80;;;;;;5037371;28;20052;-75
2021/04/26 12:36:02;;;;;;;3.40;1.63;;;24.40;25.10;;;;;;5048726;28;20056;-76
2021/04/26 12:38:36;;;;;;;3.75;1.80;;;24.50;25.00;;;;;;5050003;28;20442;-75
2021/04/26 12:41:03;;;;;;;6.22;2.42;;;25.10;24.70;;;;;;5048946;28;20043;-74
2021/04/26 12:43:32;;;;;;;3.83;2.03;;;25.70;24.50;;;;;;5050315;28;20551;-75
2021/04/26 12:46:05;;;;;;;6.90;2.25;;;25.40;24.50;;;;;;5049037;28;20038;-74
2021/04/26 12:48:33;;;;;;;5.00;2.25;;;24.90;24.60;;;;;;5048608;28;20492;-74
2021/04/26 12:51:00;;;;;;;8.40;2.20;;;24.70;24.60;;;;;;5044957;28;20053;-74
2021/04/26 12:53:32;;;;;;;4.65;1.88;;;25.40;24.00;;;;;;5047126;28;20103;-75
2021/04/26 12:56:06;;;;;;;3.30;1.77;;;25.70;23.70;;;;;;5039490;28;20044;-75
2021/04/26 12:58:44;;;;;;;7.88;2.40;;;25.40;24.00;;;;;;5047114;28;20452;-73
2021/04/26 13:01:13;;;;;;;3.33;1.73;;;25.00;24.30;;;;;;5046969;28;20049;-75
2021/04/26 13:03:42;;;;;;;3.90;1.70;;;26.00;23.10;;;;;;5042407;28;20052;-74
2021/04/26 13:06:12;;;;;;;3.05;1.70;;;27.50;23.00;;;;;;5045749;28;20055;-74
2021/04/26 13:08:41;;;;;;;4.45;1.85;;;27.80;23.40;;;;;;5041247;28;20443;-74
2021/04/26 13:11:30;;;;;;;3.83;1.77;;;28.50;21.90;;;;;;5061917;28;20071;-77